• Join FlightAware (Why Join?)
  • Login
  • US Flag 
06:26PM EDT


 

Airport Tracker/Info


-or-


 

Live Flight TrackerFlight Track Log ✈ N112CS ✈ 21-Oct-2013 ✈ KMTH - KLIT

Flight Track Log - Related Links

Times and Time Zones

All times are in EDT time to prevent confusion due to time zone crossing. See the N112CS flight status page for this flight to view local times or setup timezone preferences in your user account.

Time Position Orientation Groundspeed Altitude Reporting Facility
EDT Latitude Longitude Course Direction KTS MPH feet Rate Location/Type
07:01PM 24.8289 -81.0050 344° North 270 311 3,600  Level Miami Center
07:02PM 24.8833 -81.0044 North 241 277 5,200 1,500 Climbing Miami Center
07:03PM 24.9392 -81.0203 346° North 211 243 6,600 1,500 Climbing Miami Center
07:04PM 24.9911 -81.0381 343° North 200 230 8,300 1,500 Climbing Miami Center
07:05PM 25.0447 -81.0558 343° North 200 230 9,700 1,200 Climbing Miami Center
07:06PM 24.9907 -81.3095 344° North  Level Estimated
07:06PM 25.1008 -81.0714 346° North 200 230 10,800  Level Miami Center
07:07PM 25.1586 -81.0919 342° North 205 236 12,200 1,380 Climbing Miami Center
07:08PM 25.2144 -81.1122 342° North 210 242 13,600 1,200 Climbing Miami Center
07:09PM 25.2661 -81.1322 341° North 204 235 14,700 960 Climbing Miami Center
07:10PM 25.3219 -81.1503 344° North 204 235 15,600 960 Climbing Miami Center
07:11PM 25.3778 -81.1661 346° North 204 235 16,700 960 Climbing Miami Center
07:12PM 25.4317 -81.1819 345° North 204 235 17,600 780 Climbing Miami Center
07:13PM 25.4875 -81.2000 344° North 204 235 18,300 720 Climbing Miami Center
07:14PM 25.5456 -81.2181 344° North 204 235 19,100 780 Climbing Miami Center
07:15PM 25.5994 -81.2317 347° North 204 235 19,900 720 Climbing Miami Center
07:16PM 25.6531 -81.2497 343° North 204 235 20,600 600 Climbing Miami Center
07:17PM 25.6981 -81.2883 322° Northwest 199 229 21,100 540 Climbing Miami Center
07:18PM 25.7386 -81.3289 318° Northwest 194 223 21,700 420 Climbing Miami Center
07:19PM 25.7789 -81.3742 315° West 194 223 22,000 120 Climbing Miami Center
07:20PM 25.8192 -81.4219 313° West 204 235 22,000  Level Miami Center
07:21PM 25.8678 -81.4722 317° Northwest 222 255 22,000  Level Miami Center
07:22PM 25.9161 -81.5247 316° Northwest 233 268 22,000  Level Miami Center
07:23PM 25.9686 -81.5800 317° Northwest 245 282 22,000  Level Miami Center
07:24PM 26.0211 -81.6328 318° Northwest 245 282 22,000  Level Miami Center
07:25PM 26.0717 -81.6881 316° Northwest 250 288 22,000  Level Miami Center
07:26PM 26.1242 -81.7433 317° Northwest 255 293 22,000  Level Miami Center
07:27PM 26.1764 -81.8033 314° West 260 299 22,000  Level Miami Center
07:28PM 26.2286 -81.8589 316° Northwest 265 305 22,000  Level Miami Center
07:29PM 26.2711 -81.9047 316° Northwest 265 305 22,000  Level Miami Center
07:30PM 26.3333 -81.9722 316° Northwest 265 305 22,000  Level Miami Center
07:31PM 26.3878 -82.0300 316° Northwest 265 305 22,000  Level Miami Center
07:32PM 26.4439 -82.0928 315° West 265 305 22,000  Level Miami Center
07:33PM 26.4964 -82.1461 318° Northwest 265 305 22,000  Level Miami Center
07:34PM 26.5483 -82.2042 315° West 265 305 22,000  Level Miami Center
07:35PM 26.6025 -82.2625 316° Northwest 265 305 22,000  Level Miami Center
07:36PM 26.6567 -82.3206 316° Northwest 265 305 22,000  Level Miami Center
07:37PM 26.7089 -82.3789 315° West 265 305 22,000  Level Miami Center
07:38PM 26.7611 -82.4347 316° Northwest 265 305 22,000  Level Miami Center
07:39PM 26.8131 -82.4931 315° West 265 305 22,000  Level Miami Center
07:40PM 26.8669 -82.5514 316° Northwest 265 305 22,000  Level Miami Center
07:41PM 26.9092 -82.5978 316° Northwest 265 305 22,000  Level Miami Center
07:42PM 26.9669 -82.6611 316° Northwest 265 305 22,000  Level Miami Center
07:43PM 27.0211 -82.7197 316° Northwest 265 305 22,000  Level Miami Center
07:44PM 27.0708 -82.7758 315° West 265 305 22,000  Level Miami Center
07:45PM 27.1269 -82.8347 317° Northwest 265 305 22,000  Level Miami Center
07:46PM 27.1789 -82.8933 315° West 265 305 22,000  Level Miami Center
07:47PM 27.2328 -82.9500 317° Northwest 265 305 22,000  Level Miami Center
07:48PM 27.2844 -83.0086 315° West 265 305 22,000  Level Miami Center
07:49PM 27.3383 -83.0653 317° Northwest 265 305 22,000  Level Miami Center
07:50PM 27.3881 -83.1242 314° West 265 305 22,000  Level Miami Center
07:51PM 27.4419 -83.1808 317° Northwest 265 305 22,000  Level Miami Center
07:52PM 27.4936 -83.2397 315° West 265 305 22,000  Level Miami Center
07:54PM 27.5858 -83.3444 315° West 259 298 22,000  Level Jacksonville Center
07:55PM 27.6356 -83.4031 314° West 259 298 22,000  Level Jacksonville Center
07:56PM 27.6917 -83.4597 318° Northwest 253 291 22,000  Level Jacksonville Center
07:57PM 27.7417 -83.5186 314° West 253 291 22,000  Level Jacksonville Center
07:58PM 27.7956 -83.5775 316° Northwest 253 291 22,000  Level Jacksonville Center
07:59PM 27.8453 -83.6342 315° West 253 291 22,000  Level Jacksonville Center
08:00PM 27.8969 -83.6933 315° West 253 291 22,000  Level Jacksonville Center
08:01PM 27.9508 -83.7525 316° Northwest 253 291 22,000  Level Jacksonville Center
08:02PM 27.9986 -83.8092 314° West 253 291 22,000  Level Jacksonville Center
08:03PM 28.0503 -83.8661 316° Northwest 258 297 22,000  Level Jacksonville Center
08:04PM 28.0978 -83.9300 310° West 258 297 22,000  Level Jacksonville Center
08:05PM 28.1494 -83.9894 315° West 258 297 22,000  Level Jacksonville Center
08:06PM 28.1947 -84.0511 310° West 263 303 22,000  Level Jacksonville Center
08:07PM 28.2422 -84.1131 311° West 263 303 22,000  Level Jacksonville Center
08:08PM 28.2897 -84.1703 313° West 263 303 22,000  Level Jacksonville Center
08:09PM 28.3433 -84.2322 315° West 263 303 22,000  Level Jacksonville Center
08:10PM 28.3906 -84.2917 312° West 263 303 22,000  Level Jacksonville Center
08:11PM 28.4381 -84.3561 310° West 263 303 22,000  Level Jacksonville Center
08:12PM 28.4853 -84.4158 312° West 263 303 22,000  Level Jacksonville Center
08:13PM 28.5306 -84.4711 313° West 269 310 22,000  Level Jacksonville Center
08:14PM 28.5778 -84.5331 311° West 269 310 22,000  Level Jacksonville Center
08:15PM 28.6228 -84.5931 311° West 264 304 22,000  Level Jacksonville Center
08:16PM 28.6722 -84.6506 314° West 264 304 22,000  Level Jacksonville Center
08:17PM 28.7172 -84.7131 309° West 264 304 22,000  Level Jacksonville Center
08:18PM 28.7600 -84.7753 308° West 264 304 22,000  Level Jacksonville Center
08:19PM 28.8094 -84.8308 315° West 256 295 22,000  Level Jacksonville Center
08:20PM 28.8564 -84.8886 313° West 251 289 22,000  Level Jacksonville Center
08:21PM 28.9014 -84.9511 309° West 251 289 22,000  Level Jacksonville Center
08:22PM 28.9506 -85.0067 315° West 251 289 22,000  Level Jacksonville Center
08:23PM 28.9975 -85.0694 311° West 251 289 22,000  Level Jacksonville Center
08:24PM 29.0425 -85.1275 312° West 251 289 22,000  Level Jacksonville Center
08:25PM 29.0894 -85.1881 312° West 251 289 22,000  Level Jacksonville Center
08:26PM 29.1383 -85.2461 314° West 251 289 22,000  Level Jacksonville Center
08:27PM 29.1833 -85.3067 310° West 246 283 22,000  Level Jacksonville Center
08:28PM 29.2281 -85.3672 310° West 246 283 22,000  Level Jacksonville Center
08:29PM 29.2728 -85.4278 310° West 246 283 22,000  Level Jacksonville Center
08:30PM 29.3194 -85.4861 313° West 252 290 22,000  Level Jacksonville Center
08:31PM 29.3642 -85.5469 310° West 252 290 22,000  Level Jacksonville Center
08:32PM 29.4111 -85.6056 313° West 252 290 22,000  Level Jacksonville Center
08:33PM 29.4556 -85.6664 310° West 252 290 22,000  Level Jacksonville Center
08:34PM 29.5022 -85.7250 312° West 252 290 22,000  Level Jacksonville Center
08:35PM 29.5469 -85.7811 313° West 247 284 22,000  Level Jacksonville Center
08:36PM 29.5936 -85.8397 312° West 247 284 22,000  Level Jacksonville Center
08:37PM 29.6381 -85.9008 310° West 247 284 22,000  Level Jacksonville Center
08:38PM 29.6828 -85.9619 310° West 247 284 22,000  Level Jacksonville Center
08:39PM 29.7272 -86.0208 311° West 247 284 22,000  Level Jacksonville Center
08:40PM 29.7717 -86.0797 311° West 247 284 22,000  Level Jacksonville Center
08:41PM 29.8181 -86.1386 312° West 242 278 22,000  Level Jacksonville Center
08:42PM 29.8625 -86.1975 311° West 242 278 22,000  Level Jacksonville Center
08:43PM 29.9131 -86.2614 312° West 242 278 22,000  Level Jacksonville Center
08:44PM 29.9553 -86.3206 309° West 242 278 22,000  Level Jacksonville Center
08:45PM 29.9997 -86.3797 311° West 242 278 22,000  Level Jacksonville Center
08:46PM 30.0419 -86.4364 311° West 237 273 22,000  Level Jacksonville Center
08:47PM 30.0861 -86.4956 311° West 237 273 22,000  Level Jacksonville Center
08:48PM 30.1403 -86.5744 308° West 240 276 22,000  Level Jacksonville Center
08:49PM 30.1644 -86.6067 311° West 241 277 22,000  Level Jacksonville Center
08:50PM 30.2067 -86.6636 311° West 240 276 22,000  Level Jacksonville Center
08:51PM 30.2528 -86.7231 312° West 239 275 22,000  Level Jacksonville Center
08:52PM 30.2969 -86.7825 311° West 238 274 22,000  Level Jacksonville Center
08:53PM 30.3411 -86.8419 311° West 236 272 22,000  Level Jacksonville Center
08:54PM 30.3831 -86.8967 312° West 236 272 22,000  Level Jacksonville Center
08:54PM 30.4253 -86.9467 314° West 232 267 22,000 -420 Level Jacksonville Center
08:56PM 30.4758 -87.0019 317° Northwest 260 299 21,200 -1,020 Descending Jacksonville Center
08:57PM 30.5361 -87.0694 316° Northwest 276 318 19,900 -1,020 Descending Jacksonville Center
08:58PM 30.5906 -87.1322 315° West 284 327 19,100 -720 Descending Jacksonville Center
08:59PM 30.6389 -87.1828 318° Northwest 318 366 18,600 -480 Descending Jacksonville Center
09:00PM 30.6911 -87.2431 315° West 304 350 18,300 -300 Descending Jacksonville Center
09:01PM 30.7414 -87.3033 314° West 275 316 18,000 -420 Descending Jacksonville Center
09:02PM 30.7914 -87.3636 314° West 261 300 17,500 -720 Descending Jacksonville Center
09:03PM 30.9000 -87.4856 316° Northwest 286 329 16,100 -540 Descending Houston Center
09:04PM 30.9514 -87.5417 317° Northwest 261 300 16,000 -60 Descending Houston Center
09:05PM 31.0000 -87.6008 314° West 255 293 16,000  Level Houston Center
09:06PM 31.0494 -87.6589 315° West 253 291 16,000  Level Houston Center
09:07PM 31.0978 -87.7178 314° West 253 291 16,000  Level Houston Center
09:08PM 31.1481 -87.7767 315° West 256 295 16,000  Level Houston Center
09:10PM 31.1994 -87.8364 315° West 261 300 16,000  Level Houston Center
09:11PM 31.2611 -87.9097 315° West 265 305 16,000  Level Houston Center
09:13PM 31.3892 -88.0569 316° Northwest 272 313 16,000  Level Memphis Center
09:14PM 31.4406 -88.1200 314° West 271 312 16,000  Level Memphis Center
09:15PM 31.4944 -88.1814 316° Northwest 272 313 16,000  Level Memphis Center
09:16PM 31.5586 -88.2567 315° West 273 314 16,000  Level Memphis Center
09:17PM 31.6108 -88.3194 314° West 271 312 16,000  Level Memphis Center
09:18PM 31.6633 -88.3814 315° West 270 311 16,000  Level Memphis Center
09:19PM 31.7019 -88.4308 313° West 262 302 16,000 -300 Level Houston Center
09:20PM 31.7542 -88.4958 313° West 270 311 15,500 -480 Descending Houston Center
09:21PM 31.8072 -88.5647 312° West 280 322 15,100 -360 Descending Houston Center
09:22PM 31.8594 -88.6275 314° West 275 316 14,800 -540 Descending Houston Center
09:23PM 31.9136 -88.6883 316° Northwest 271 312 14,000 -420 Descending Houston Center
09:24PM 31.9669 -88.7481 316° Northwest 267 307 14,000  Level Houston Center
09:25PM 32.0261 -88.8164 316° Northwest 253 291 14,000  Level Houston Center
09:26PM 32.0850 -88.8842 316° Northwest 246 283 14,000  Level Memphis Center
09:27PM 32.1306 -88.9442 312° West 247 284 14,000  Level Memphis Center
09:28PM 32.1792 -89.0011 315° West 248 285 14,000  Level Memphis Center
09:29PM 32.2269 -89.0592 314° West 249 287 14,000  Level Memphis Center
09:30PM 32.2758 -89.1217 313° West 254 292 14,000  Level Memphis Center
09:31PM 32.3281 -89.1833 315° West 260 299 14,000  Level Memphis Center
09:32PM 32.3897 -89.2586 314° West 265 305 14,000  Level Memphis Center
09:33PM 32.4419 -89.3219 314° West 268 308 14,000  Level Memphis Center
09:35PM 32.4961 -89.3847 316° Northwest 272 313 14,000  Level Memphis Center
09:36PM 32.5481 -89.4497 313° West 272 313 14,000  Level Memphis Center
09:37PM 32.6008 -89.5133 315° West 272 313 14,000  Level Memphis Center
09:38PM 32.6536 -89.5789 314° West 275 316 14,000  Level Memphis Center
09:39PM 32.7072 -89.6436 315° West 276 318 14,000  Level Memphis Center
09:40PM 32.7611 -89.7097 314° West 277 319 14,000  Level Memphis Center
09:41PM 32.8242 -89.7892 313° West 276 318 14,000  Level Memphis Center
09:42PM 32.8775 -89.8550 314° West 275 316 14,000  Level Memphis Center
09:43PM 32.9319 -89.9203 315° West 270 311 14,000  Level Memphis Center
09:44PM 32.9844 -89.9886 312° West 274 315 14,000  Level Memphis Center
09:45PM 33.0369 -90.0536 314° West 274 315 14,000  Level Memphis Center
09:46PM 33.0886 -90.1178 314° West 270 311 14,000  Level Memphis Center
09:47PM 33.1400 -90.1817 314° West 269 310 14,000  Level Memphis Center
09:48PM 33.1922 -90.2475 313° West 271 312 14,000  Level Memphis Center
09:49PM 33.2442 -90.3111 314° West 271 312 14,000  Level Memphis Center
09:50PM 33.2953 -90.3739 314° West 267 307 14,000  Level Memphis Center
09:51PM 33.3467 -90.4397 313° West 270 311 14,000  Level Memphis Center
09:52PM 33.4083 -90.5153 314° West 268 308 14,000  Level Memphis Center
09:53PM 33.4583 -90.5786 313° West 265 305 14,000  Level Memphis Center
09:54PM 33.5097 -90.6442 313° West 269 310 14,000  Level Memphis Center
09:55PM 33.5608 -90.7089 313° West 269 310 14,000  Level Memphis Center
09:56PM 33.6122 -90.7736 314° West 270 311 14,000  Level Memphis Center
09:57PM 33.6633 -90.8392 313° West 271 312 14,000  Level Memphis Center
09:58PM 33.7133 -90.9028 313° West 266 306 14,000  Level Memphis Center
09:59PM 33.7636 -90.9692 312° West 269 310 14,000  Level Memphis Center
10:00PM 33.8239 -91.0464 313° West 267 307 14,000  Level Memphis Center
10:01PM 33.8706 -91.1089 312° West 264 304 14,000 -300 Level Memphis Center
10:02PM 33.9217 -91.1742 313° West 264 304 13,400 -720 Descending Memphis Center
10:03PM 33.9739 -91.2456 311° West 276 318 12,600 -840 Descending Memphis Center
10:04PM 34.0311 -91.3161 314° West 287 330 11,800 -840 Descending Memphis Center
10:04PM 34.0539 -91.3475 311° West 299 344 11,500 -600 Descending Memphis Center
10:05PM 34.0886 -91.3889 315° West 293 337 11,200 -600 Descending Memphis Center
10:06PM 34.1408 -91.4542 314° West 294 338 10,600 -720 Descending Memphis Center
10:06PM 34.1497 -91.4617 325° Northwest 300 345 10,500 -720 Descending Memphis Center
10:07PM 34.1722 -91.4947 309° West 293 337 10,200 -540 Descending Memphis Center
10:07PM 34.2050 -91.5344 315° West 294 338 10,000 -720 Descending Memphis Center
10:08PM 34.2481 -91.5925 312° West 290 334 9,300 -900 Descending Memphis Center
10:08PM 34.2597 -91.6081 312° West 291 335 9,100 -840 Descending Memphis Center
10:09PM 34.2994 -91.6644 310° West 296 341 8,500 -900 Descending Memphis Center
10:09PM 34.3158 -91.6839 316° Northwest 295 339 8,200 -900 Descending Memphis Center
10:10PM 34.3489 -91.7314 310° West 298 343 7,700 -1,020 Descending Memphis Center
10:10PM 34.3778 -91.7633 318° Northwest 296 341 7,200 -1,140 Descending Memphis Center
10:11PM 34.3944 -91.8117 293° West 276 318 6,600 -1,020 Descending Memphis Center
10:11PM 34.3964 -91.8486 274° West 268 308 6,200 -1,020 Descending Memphis Center
10:12PM 34.3964 -91.9022 270° West 246 283 5,600 -1,200 Descending Memphis Center
10:12PM 34.3969 -91.9339 271° West 260 299 5,000 -1,380 Descending Memphis Center
10:13PM 34.3961 -91.9856 269° West 254 292 4,200 -1,320 Descending Memphis Center
10:13PM 34.4058 -92.0192 289° West 258 297 3,700 -1,020 Descending Memphis Center
10:14PM 34.4242 -92.0542 302° West 257 296 3,300 -420 Descending Memphis Center
10:14PM 34.4472 -92.0878 310° West 253 291 3,300  Level Memphis Center
10:15PM 34.4647 -92.1197 304° West 233 268 3,300  Level Memphis Center
10:15PM 34.4819 -92.1494 305° West 237 273 3,300 -120 Level Memphis Center
10:16PM 34.4986 -92.1756 308° West 206 237 3,200 -600 Descending Memphis Center
10:16PM 34.5167 -92.2056 306° West 221 254 2,700 -780 Descending Memphis Center
10:17PM 34.5322 -92.2289 309° West 213 245 2,500 -720 Descending Memphis Center
10:17PM 34.5642 -92.2386 346° North 220 253 2,000 -480 Descending Memphis Center
10:18PM 34.5953 -92.2403 357° North 193 222 2,000  Level Memphis Center
10:18PM 34.6167 -92.2386 North 202 232 2,000  Level Memphis Center
10:19PM 34.6372 -92.2425 351° North 146 168 2,000 -240 Level Memphis Center
10:19PM 34.6561 -92.2411 North 173 199 1,800 -720 Descending Memphis Center
10:20PM 34.6686 -92.2406 North 116 133 1,400 -600 Descending Memphis Center
10:20PM 34.6919 -92.2392 North 149 171 1,200 -660 Descending Memphis Center
10:21PM 34.7039 -92.2383 North 111 128 700 -1,200 Descending Memphis Center
10:23PM 34.7167 -92.2167 39° Northeast  Level FlightAware Approximate